createdAt,value
2023-01-09T00:01:25.333Z,7.30
2023-01-09T00:03:52.053Z,7.29
2023-01-09T00:06:18.863Z,7.29
2023-01-09T00:08:45.422Z,7.28
2023-01-09T00:11:12.087Z,7.25
2023-01-09T00:13:39.071Z,7.24
2023-01-09T00:16:07.401Z,7.20
2023-01-09T00:18:34.963Z,7.22
2023-01-09T00:21:08.208Z,7.20
2023-01-09T00:23:35.186Z,7.21
2023-01-09T00:26:22.023Z,7.20
2023-01-09T00:28:50.363Z,7.23
2023-01-09T00:31:18.263Z,7.23
2023-01-09T00:33:49.649Z,7.23
2023-01-09T00:36:16.248Z,7.24
2023-01-09T00:38:42.912Z,7.26
2023-01-09T00:41:14.189Z,7.26
2023-01-09T00:43:48.443Z,7.29
2023-01-09T00:46:17.225Z,7.32
2023-01-09T00:48:47.429Z,7.35
2023-01-09T00:51:14.738Z,7.34
2023-01-09T00:53:43.431Z,7.31
2023-01-09T00:56:15.076Z,7.31
2023-01-09T00:58:41.735Z,7.26
2023-01-09T01:01:08.562Z,7.24
2023-01-09T01:03:35.259Z,7.20
2023-01-09T01:06:01.783Z,7.18
2023-01-09T01:08:28.332Z,7.18
2023-01-09T01:10:54.841Z,7.20
2023-01-09T01:13:21.571Z,7.22
2023-01-09T01:15:48.037Z,7.25
2023-01-09T01:18:15.050Z,7.30
2023-01-09T01:20:43.403Z,7.33
2023-01-09T01:23:10.003Z,7.35
2023-01-09T01:25:38.741Z,7.37
2023-01-09T01:28:06.469Z,7.40
2023-01-09T01:30:33.772Z,7.42
2023-01-09T01:33:00.970Z,7.45
2023-01-09T01:35:27.526Z,7.48
2023-01-09T01:37:53.985Z,7.49
2023-01-09T01:40:20.591Z,7.53
2023-01-09T01:42:50.216Z,7.54
2023-01-09T01:45:19.230Z,7.56
2023-01-09T01:48:07.153Z,7.57
2023-01-09T01:50:50.281Z,7.57
2023-01-09T01:53:28.586Z,7.55
2023-01-09T01:56:14.262Z,7.54
2023-01-09T01:58:47.733Z,7.53
2023-01-09T02:01:14.909Z,7.52
2023-01-09T02:03:42.273Z,7.49
2023-01-09T02:06:09.727Z,7.48
2023-01-09T02:08:36.718Z,7.48
2023-01-09T02:11:04.450Z,7.47
2023-01-09T02:13:33.769Z,7.47
2023-01-09T02:16:22.791Z,7.46
2023-01-09T02:19:04.149Z,7.44
2023-01-09T02:21:51.693Z,7.43
2023-01-09T02:24:43.421Z,7.42
2023-01-09T02:27:25.183Z,7.41
2023-01-09T02:30:10.085Z,7.42
2023-01-09T02:33:00.616Z,7.41
2023-01-09T02:35:51.719Z,7.37
2023-01-09T02:38:54.158Z,7.36
2023-01-09T02:41:28.301Z,7.38
2023-01-09T02:44:30.383Z,7.36
2023-01-09T02:47:19.997Z,7.33
2023-01-09T02:49:51.349Z,7.35
2023-01-09T02:52:59.292Z,7.37
2023-01-09T02:55:41.377Z,7.36
2023-01-09T02:58:16.798Z,7.42
2023-01-09T03:01:02.463Z,7.43
2023-01-09T03:03:56.656Z,7.46
2023-01-09T03:06:42.792Z,7.50
2023-01-09T03:09:17.505Z,7.52
2023-01-09T03:11:49.640Z,7.55
2023-01-09T03:14:21.238Z,7.58
2023-01-09T03:16:56.658Z,7.60
2023-01-09T03:19:26.982Z,7.62
2023-01-09T03:21:55.201Z,7.65
2023-01-09T03:24:21.733Z,7.59
2023-01-09T03:26:48.397Z,7.68
2023-01-09T03:29:14.904Z,7.70
2023-01-09T03:31:41.545Z,7.72
2023-01-09T03:34:08.161Z,7.73
2023-01-09T03:36:34.710Z,7.73
2023-01-09T03:39:01.165Z,7.75
2023-01-09T03:41:27.681Z,7.76
2023-01-09T03:43:54.261Z,7.77
2023-01-09T03:46:20.735Z,7.75
2023-01-09T03:48:47.321Z,7.75
2023-01-09T03:51:13.816Z,7.75
2023-01-09T03:53:41.340Z,7.73
2023-01-09T03:56:07.904Z,7.73
2023-01-09T03:58:34.518Z,7.75
2023-01-09T04:01:03.991Z,7.75
2023-01-09T04:03:30.819Z,7.76
2023-01-09T04:05:57.420Z,7.79
2023-01-09T04:08:23.888Z,7.80
2023-01-09T04:10:51.260Z,7.82
2023-01-09T04:13:18.498Z,7.83
2023-01-09T04:15:45.044Z,7.83
2023-01-09T04:18:11.562Z,7.84
2023-01-09T04:20:38.208Z,7.85
2023-01-09T04:23:04.937Z,7.84
2023-01-09T04:25:31.595Z,7.85
2023-01-09T04:27:58.117Z,7.86
2023-01-09T04:30:24.710Z,7.84
2023-01-09T04:32:51.239Z,7.84
2023-01-09T04:35:18.382Z,7.84
2023-01-09T04:37:44.931Z,7.79
2023-01-09T04:40:12.099Z,7.79
2023-01-09T04:42:39.726Z,7.80
2023-01-09T04:45:07.877Z,7.83
2023-01-09T04:47:34.333Z,7.75
2023-01-09T04:50:01.020Z,7.84
2023-01-09T04:52:28.283Z,7.85
2023-01-09T04:54:54.738Z,7.84
2023-01-09T04:57:21.283Z,7.86
2023-01-09T04:59:47.768Z,7.88
2023-01-09T05:02:14.418Z,7.86
2023-01-09T05:04:41.070Z,7.85
2023-01-09T05:07:07.883Z,7.86
2023-01-09T05:09:34.493Z,7.84
2023-01-09T05:12:01.901Z,7.89
2023-01-09T05:14:28.622Z,7.90
2023-01-09T05:16:55.179Z,7.94
2023-01-09T05:19:21.647Z,7.95
2023-01-09T05:21:48.118Z,7.97
2023-01-09T05:24:14.688Z,8.02
2023-01-09T05:26:41.324Z,8.06
2023-01-09T05:29:07.941Z,8.11
2023-01-09T05:31:34.670Z,8.14
2023-01-09T05:34:01.153Z,8.18
2023-01-09T05:36:27.761Z,8.19
2023-01-09T05:38:54.230Z,8.24
2023-01-09T05:41:22.516Z,8.29
2023-01-09T05:43:50.204Z,8.28
2023-01-09T05:46:16.684Z,8.30
2023-01-09T05:48:43.128Z,8.31
2023-01-09T05:51:09.732Z,8.32
2023-01-09T05:53:36.243Z,8.36
2023-01-09T05:56:03.042Z,8.24
2023-01-09T05:58:29.609Z,8.24
2023-01-09T06:00:56.149Z,8.27
2023-01-09T06:03:22.738Z,8.29
2023-01-09T06:05:49.224Z,8.33
2023-01-09T06:08:15.799Z,8.28
2023-01-09T06:10:42.241Z,8.29
2023-01-09T06:13:08.971Z,8.27
2023-01-09T06:15:35.648Z,8.26
2023-01-09T06:18:02.165Z,8.27
2023-01-09T06:20:28.716Z,8.25
2023-01-09T06:22:55.163Z,8.27
2023-01-09T06:25:22.029Z,8.25
2023-01-09T06:27:49.151Z,8.24
2023-01-09T06:30:15.759Z,8.28
2023-01-09T06:32:42.284Z,8.23
2023-01-09T06:35:09.341Z,8.26
2023-01-09T06:37:35.871Z,8.21
2023-01-09T06:40:02.434Z,8.25
2023-01-09T06:42:28.901Z,8.23
2023-01-09T06:44:55.408Z,8.24
2023-01-09T06:47:21.902Z,8.26
2023-01-09T06:49:48.372Z,8.27
2023-01-09T06:52:14.867Z,8.27
2023-01-09T06:54:41.434Z,8.17
2023-01-09T06:57:08.013Z,8.27
2023-01-09T06:59:34.473Z,8.26
2023-01-09T07:02:01.003Z,8.31
2023-01-09T07:04:27.587Z,8.33
2023-01-09T07:06:54.104Z,8.32
2023-01-09T07:09:20.656Z,8.32
2023-01-09T07:11:47.128Z,8.30
2023-01-09T07:14:13.617Z,8.34
2023-01-09T07:16:40.114Z,8.30
2023-01-09T07:19:06.606Z,8.33
2023-01-09T07:21:33.198Z,8.34
2023-01-09T07:23:59.760Z,8.35
2023-01-09T07:26:26.312Z,8.36
2023-01-09T07:28:52.767Z,8.39
2023-01-09T07:31:19.284Z,8.38
2023-01-09T07:33:45.815Z,8.38
2023-01-09T07:36:12.765Z,8.41
2023-01-09T07:38:39.436Z,8.36
2023-01-09T07:41:06.039Z,8.43
2023-01-09T07:43:32.587Z,8.41
2023-01-09T07:45:59.218Z,8.40
2023-01-09T07:48:25.775Z,8.40
2023-01-09T07:50:52.418Z,8.33
2023-01-09T07:53:18.882Z,8.43
2023-01-09T07:55:45.388Z,8.39
2023-01-09T07:58:11.970Z,8.42
2023-01-09T08:00:38.608Z,8.44
2023-01-09T08:03:05.195Z,8.46
2023-01-09T08:05:31.861Z,8.51
2023-01-09T08:07:58.402Z,8.50
2023-01-09T08:10:24.945Z,8.47
2023-01-09T08:12:51.519Z,8.56
2023-01-09T08:15:18.335Z,8.54
2023-01-09T08:17:46.373Z,8.59
2023-01-09T08:20:14.003Z,8.51
2023-01-09T08:22:45.708Z,8.56
2023-01-09T08:25:12.850Z,8.53
2023-01-09T08:27:39.548Z,8.52
2023-01-09T08:30:06.689Z,8.52
2023-01-09T08:32:33.290Z,8.50
2023-01-09T08:34:59.788Z,8.55
2023-01-09T08:37:26.300Z,8.51
2023-01-09T08:39:52.960Z,8.51
2023-01-09T08:42:19.930Z,8.40
2023-01-09T08:44:46.509Z,8.48
2023-01-09T08:47:16.322Z,8.40
2023-01-09T08:49:42.878Z,8.44
2023-01-09T08:52:09.769Z,8.46
2023-01-09T08:54:36.368Z,8.47
2023-01-09T08:57:02.956Z,8.49
2023-01-09T08:59:29.453Z,8.48
2023-01-09T09:01:56.120Z,8.44
2023-01-09T09:04:22.740Z,8.43
2023-01-09T09:06:49.279Z,8.45
2023-01-09T09:09:16.185Z,8.48
2023-01-09T09:11:42.755Z,8.52
2023-01-09T09:14:09.315Z,8.51
2023-01-09T09:16:35.800Z,8.51
2023-01-09T09:19:02.328Z,8.54
2023-01-09T09:21:28.976Z,8.58
2023-01-09T09:23:55.593Z,8.57
2023-01-09T09:26:22.125Z,8.53
2023-01-09T09:28:48.638Z,8.50
2023-01-09T09:31:15.270Z,8.53
2023-01-09T09:33:42.015Z,8.52
2023-01-09T09:36:08.605Z,8.48
2023-01-09T09:38:35.230Z,8.48
2023-01-09T09:41:23.539Z,8.40
2023-01-09T09:44:15.036Z,8.44
2023-01-09T09:46:54.781Z,8.46
2023-01-09T09:49:27.992Z,8.48
2023-01-09T09:52:33.742Z,8.46
2023-01-09T09:55:05.515Z,8.48
2023-01-09T09:57:36.363Z,8.48
2023-01-09T10:00:05.739Z,8.50
2023-01-09T10:02:46.514Z,8.48
2023-01-09T10:05:20.432Z,8.49
2023-01-09T10:07:50.810Z,8.49
2023-01-09T10:10:42.089Z,8.42
2023-01-09T10:13:09.799Z,8.50
2023-01-09T10:15:46.532Z,8.52
2023-01-09T10:18:42.526Z,8.55
2023-01-09T10:21:35.021Z,8.55
2023-01-09T10:24:18.117Z,8.43
2023-01-09T10:26:50.916Z,8.44
2023-01-09T10:29:58.591Z,8.51
2023-01-09T10:32:45.872Z,8.58
2023-01-09T10:35:48.487Z,8.58
2023-01-09T10:38:20.482Z,8.58
2023-01-09T10:41:00.689Z,8.58
2023-01-09T10:43:42.160Z,8.64
2023-01-09T10:46:21.592Z,8.66
2023-01-09T10:48:53.577Z,8.67
2023-01-09T10:51:24.051Z,8.74
2023-01-09T10:53:53.927Z,8.75
2023-01-09T10:56:26.505Z,8.77
2023-01-09T10:58:54.703Z,8.82
2023-01-09T11:01:30.661Z,8.81
2023-01-09T11:03:57.304Z,8.86
2023-01-09T11:06:29.907Z,8.89
2023-01-09T11:09:00.283Z,8.93
2023-01-09T11:11:38.749Z,8.96
2023-01-09T11:14:27.243Z,8.94
2023-01-09T11:17:03.623Z,8.96
2023-01-09T11:19:31.847Z,9.05
2023-01-09T11:22:09.672Z,9.08
2023-01-09T11:24:36.268Z,9.12
2023-01-09T11:27:22.728Z,9.11
2023-01-09T11:30:13.958Z,9.14
2023-01-09T11:32:40.680Z,9.18
2023-01-09T11:35:18.434Z,9.17
2023-01-09T11:37:46.107Z,9.23
2023-01-09T11:40:20.258Z,9.19
2023-01-09T11:43:14.223Z,9.18
2023-01-09T11:46:01.258Z,9.21
2023-01-09T11:48:48.260Z,9.13
2023-01-09T11:51:21.433Z,9.15
2023-01-09T11:53:51.027Z,9.21
2023-01-09T11:56:17.999Z,9.22
2023-01-09T11:58:45.016Z,9.21
2023-01-09T12:01:29.464Z,9.21
2023-01-09T12:04:07.984Z,9.24
2023-01-09T12:06:41.824Z,9.24
2023-01-09T12:09:14.704Z,9.25
2023-01-09T12:11:53.168Z,9.27
2023-01-09T12:14:46.226Z,9.19
2023-01-09T12:17:33.464Z,9.24
2023-01-09T12:20:22.574Z,9.24
2023-01-09T12:23:01.510Z,9.28
2023-01-09T12:25:37.685Z,9.32
2023-01-09T12:28:34.689Z,9.31
2023-01-09T12:31:25.173Z,9.28
2023-01-09T12:34:18.833Z,9.30
2023-01-09T12:37:04.389Z,9.33
2023-01-09T12:39:43.158Z,9.34
2023-01-09T12:42:31.166Z,9.35
2023-01-09T12:45:00.498Z,9.28
2023-01-09T12:47:33.068Z,9.39
2023-01-09T12:50:08.189Z,9.43
2023-01-09T12:52:38.720Z,9.41
2023-01-09T12:55:15.703Z,9.37
2023-01-09T12:57:46.866Z,9.45
2023-01-09T13:00:13.891Z,9.48
2023-01-09T13:03:11.384Z,9.49
2023-01-09T13:05:58.629Z,9.47
2023-01-09T13:08:40.514Z,9.49
2023-01-09T13:11:20.333Z,9.51
2023-01-09T13:13:52.976Z,9.54
2023-01-09T13:16:26.781Z,9.52
2023-01-09T13:19:03.683Z,9.50
2023-01-09T13:21:31.299Z,9.53
2023-01-09T13:24:07.121Z,9.54
2023-01-09T13:26:43.543Z,9.55
2023-01-09T13:29:14.679Z,9.54
2023-01-09T13:32:11.991Z,9.57
2023-01-09T13:34:39.626Z,9.56
2023-01-09T13:37:27.025Z,9.54
2023-01-09T13:39:58.254Z,9.56
2023-01-09T13:42:25.351Z,9.61
2023-01-09T13:44:55.349Z,9.57
2023-01-09T13:47:27.998Z,9.56
2023-01-09T13:50:00.693Z,9.54
2023-01-09T13:52:37.382Z,9.52
2023-01-09T13:55:13.097Z,9.49
2023-01-09T13:58:02.687Z,9.50
2023-01-09T14:00:29.240Z,9.46
2023-01-09T14:02:57.552Z,9.44
2023-01-09T14:05:24.043Z,9.42
2023-01-09T14:08:00.491Z,9.41
2023-01-09T14:10:27.054Z,9.38
2023-01-09T14:12:55.967Z,9.35
2023-01-09T14:15:28.239Z,9.33
2023-01-09T14:18:00.641Z,9.31
2023-01-09T14:20:33.689Z,9.32
2023-01-09T14:25:47.167Z,9.25
2023-01-09T14:28:25.889Z,9.24
2023-01-09T14:30:52.381Z,9.24
2023-01-09T14:33:18.881Z,9.22
2023-01-09T14:35:55.163Z,9.19
2023-01-09T14:38:26.236Z,9.17
2023-01-09T14:41:20.205Z,9.11
2023-01-09T14:43:46.721Z,9.11
2023-01-09T14:46:17.649Z,9.10
2023-01-09T14:48:57.375Z,9.09
2023-01-09T14:51:25.949Z,9.07
2023-01-09T14:53:54.585Z,9.04
2023-01-09T14:56:29.838Z,9.04
2023-01-09T14:59:13.217Z,9.03
2023-01-09T15:01:46.989Z,9.00
2023-01-09T15:04:19.330Z,9.00
2023-01-09T15:06:45.881Z,8.98
2023-01-09T15:09:28.772Z,8.99
2023-01-09T15:11:59.547Z,8.98
2023-01-09T15:14:39.944Z,8.96
2023-01-09T15:17:19.165Z,8.96
2023-01-09T15:19:46.479Z,8.96
2023-01-09T15:22:27.702Z,8.92
2023-01-09T15:24:54.195Z,8.92
2023-01-09T15:27:20.896Z,8.92
2023-01-09T15:29:48.287Z,8.92
2023-01-09T15:32:35.250Z,8.89
2023-01-09T15:35:01.794Z,8.89
2023-01-09T15:37:33.384Z,8.89
2023-01-09T15:40:02.816Z,8.89
2023-01-09T15:42:32.453Z,8.91
2023-01-09T15:44:59.054Z,8.92
2023-01-09T15:47:25.654Z,8.92
2023-01-09T15:49:52.650Z,8.89
2023-01-09T15:52:20.943Z,8.91
2023-01-09T15:54:47.519Z,8.84
2023-01-09T15:57:29.017Z,8.83
2023-01-09T15:59:57.940Z,8.84
2023-01-09T16:02:25.888Z,8.83
2023-01-09T16:04:54.900Z,8.82
2023-01-09T16:07:21.440Z,8.84
2023-01-09T16:09:49.927Z,8.84
2023-01-09T16:12:34.572Z,8.85
2023-01-09T16:15:01.439Z,8.85
2023-01-09T16:17:28.176Z,8.85
2023-01-09T16:19:56.868Z,8.82
2023-01-09T16:22:26.351Z,8.85
2023-01-09T16:24:54.764Z,8.85
2023-01-09T16:27:22.239Z,8.85
2023-01-09T16:29:50.170Z,8.86
2023-01-09T16:32:22.548Z,8.87
2023-01-09T16:34:58.539Z,8.85
2023-01-09T16:37:25.960Z,8.81
2023-01-09T16:40:14.076Z,8.79
2023-01-09T16:42:40.645Z,8.77
2023-01-09T16:45:07.934Z,8.74
2023-01-09T16:47:34.396Z,8.74
2023-01-09T16:50:01.047Z,8.73
2023-01-09T16:52:30.484Z,8.70
2023-01-09T16:54:57.049Z,8.68
2023-01-09T16:57:24.404Z,8.68
2023-01-09T16:59:50.935Z,8.67
2023-01-09T17:02:19.307Z,8.64
2023-01-09T17:04:46.097Z,8.61
2023-01-09T17:07:16.980Z,8.59
2023-01-09T17:09:43.952Z,8.60
2023-01-09T17:12:18.781Z,8.58
2023-01-09T17:14:49.014Z,8.58
2023-01-09T17:17:18.799Z,8.55
2023-01-09T17:19:45.482Z,8.53
2023-01-09T17:22:12.171Z,8.50
2023-01-09T17:24:38.762Z,8.49
2023-01-09T17:27:05.450Z,8.48
2023-01-09T17:29:33.422Z,8.49
2023-01-09T17:32:00.443Z,8.45
2023-01-09T17:34:27.109Z,8.43
2023-01-09T17:36:53.953Z,8.45
2023-01-09T17:39:20.753Z,8.41
2023-01-09T17:41:47.228Z,8.40
2023-01-09T17:44:13.917Z,8.40
2023-01-09T17:46:43.364Z,8.39
2023-01-09T17:49:16.465Z,8.34
2023-01-09T17:51:43.138Z,8.36
2023-01-09T17:54:12.998Z,8.36
2023-01-09T17:56:43.078Z,8.31
2023-01-09T17:59:13.902Z,8.31
2023-01-09T18:01:41.469Z,8.30
2023-01-09T18:04:08.632Z,8.27
2023-01-09T18:06:35.595Z,8.25
2023-01-09T18:09:06.269Z,8.22
2023-01-09T18:11:33.499Z,8.20
2023-01-09T18:14:00.168Z,8.17
2023-01-09T18:16:28.481Z,8.13
2023-01-09T18:18:57.308Z,8.07
2023-01-09T18:21:24.747Z,8.05
2023-01-09T18:23:51.738Z,8.05
2023-01-09T18:26:18.843Z,7.98
2023-01-09T18:28:45.749Z,7.97
2023-01-09T18:31:12.342Z,7.95
2023-01-09T18:33:39.119Z,7.90
2023-01-09T18:36:10.108Z,7.84
2023-01-09T18:38:37.029Z,7.82
2023-01-09T18:41:05.248Z,7.77
2023-01-09T18:43:32.051Z,7.73
2023-01-09T18:45:58.844Z,7.68
2023-01-09T18:48:25.407Z,7.61
2023-01-09T18:50:51.886Z,7.57
2023-01-09T18:53:18.367Z,7.52
2023-01-09T18:55:44.833Z,7.45
2023-01-09T18:58:13.948Z,7.42
2023-01-09T19:00:40.654Z,7.37
2023-01-09T19:03:07.386Z,7.32
2023-01-09T19:05:33.859Z,7.27
2023-01-09T19:08:00.377Z,7.26
2023-01-09T19:10:26.948Z,7.20
2023-01-09T19:12:53.450Z,7.16
2023-01-09T19:15:20.033Z,7.15
2023-01-09T19:17:46.708Z,7.14
2023-01-09T19:20:13.303Z,7.10
2023-01-09T19:22:39.895Z,7.08
2023-01-09T19:27:58.127Z,7.04
2023-01-09T19:30:25.386Z,7.02
2023-01-09T19:32:52.359Z,7.00
2023-01-09T19:35:22.706Z,7.00
2023-01-09T19:37:49.439Z,7.00
2023-01-09T19:40:19.334Z,6.97
2023-01-09T19:42:46.020Z,7.01
2023-01-09T19:45:12.776Z,7.03
2023-01-09T19:47:39.521Z,7.00
2023-01-09T19:50:10.631Z,7.02
2023-01-09T19:52:37.589Z,7.04
2023-01-09T19:55:05.123Z,7.05
2023-01-09T19:57:31.818Z,7.06
2023-01-09T19:59:58.618Z,7.06
2023-01-09T20:02:25.205Z,7.06
2023-01-09T20:04:51.967Z,7.06
2023-01-09T20:07:18.580Z,7.05
2023-01-09T20:09:45.181Z,7.06
2023-01-09T20:12:11.888Z,7.04
2023-01-09T20:14:38.496Z,7.01
2023-01-09T20:17:05.201Z,7.02
2023-01-09T20:19:32.338Z,6.97
2023-01-09T20:22:00.468Z,6.94
2023-01-09T20:24:27.251Z,6.92
2023-01-09T20:26:53.967Z,6.90
2023-01-09T20:29:20.703Z,6.85
2023-01-09T20:31:47.496Z,6.82
2023-01-09T20:34:15.127Z,6.77
2023-01-09T20:36:51.070Z,6.71
2023-01-09T20:39:17.823Z,6.69
2023-01-09T20:41:44.629Z,6.64
2023-01-09T20:44:15.419Z,6.60
2023-01-09T20:46:44.082Z,6.53
2023-01-09T20:49:13.214Z,6.49
2023-01-09T20:51:45.374Z,6.46
2023-01-09T20:54:19.506Z,6.47
2023-01-09T20:56:46.101Z,6.41
2023-01-09T20:59:17.856Z,6.45
2023-01-09T21:01:44.510Z,6.43
2023-01-09T21:04:13.718Z,6.47
2023-01-09T21:06:41.279Z,6.48
2023-01-09T21:09:07.957Z,6.49
2023-01-09T21:11:35.005Z,6.52
2023-01-09T21:14:03.020Z,6.53
2023-01-09T21:16:29.782Z,6.56
2023-01-09T21:19:06.972Z,6.59
2023-01-09T21:21:33.828Z,6.60
2023-01-09T21:24:02.722Z,6.62
2023-01-09T21:26:32.095Z,6.64
2023-01-09T21:29:01.085Z,6.65
2023-01-09T21:31:30.471Z,6.67
2023-01-09T21:33:57.291Z,6.68
2023-01-09T21:36:24.447Z,6.69
2023-01-09T21:39:24.660Z,6.67
2023-01-09T21:41:52.960Z,6.66
2023-01-09T21:45:57.233Z,6.66
2023-01-09T21:47:14.871Z,6.66
2023-01-09T21:49:44.573Z,6.65
2023-01-09T21:52:21.649Z,6.61
2023-01-09T21:54:48.592Z,6.63
2023-01-09T21:57:15.690Z,6.64
2023-01-09T21:59:42.304Z,6.63
2023-01-09T22:02:12.078Z,6.63
2023-01-09T22:04:40.160Z,6.64
2023-01-09T22:07:06.840Z,6.53
2023-01-09T22:09:33.525Z,6.52
2023-01-09T22:12:00.169Z,6.54
2023-01-09T22:14:27.052Z,6.52
2023-01-09T22:16:53.856Z,6.49
2023-01-09T22:19:22.830Z,6.47
2023-01-09T22:22:00.508Z,6.47
2023-01-09T22:24:37.742Z,6.46
2023-01-09T22:27:09.156Z,6.44
2023-01-09T22:29:37.239Z,6.45
2023-01-09T22:32:04.088Z,6.41
2023-01-09T22:34:30.710Z,6.40
2023-01-09T22:37:44.302Z,6.42
2023-01-09T22:39:49.999Z,6.40
2023-01-09T22:43:06.090Z,6.44
2023-01-09T22:45:07.616Z,6.42
2023-01-09T22:47:35.431Z,6.41
2023-01-09T22:50:02.054Z,6.40
2023-01-09T22:52:28.933Z,6.41
2023-01-09T22:54:55.624Z,6.39
2023-01-09T22:57:24.410Z,6.38
2023-01-09T23:00:03.718Z,6.37
2023-01-09T23:02:30.644Z,6.42
2023-01-09T23:04:58.660Z,6.42
2023-01-09T23:07:27.878Z,6.44
2023-01-09T23:10:05.521Z,6.47
2023-01-09T23:12:33.097Z,6.45
2023-01-09T23:15:01.941Z,6.46
2023-01-09T23:17:28.763Z,6.45
2023-01-09T23:19:55.376Z,6.44
2023-01-09T23:22:23.206Z,6.49
2023-01-09T23:24:49.979Z,6.46
2023-01-09T23:27:16.680Z,6.50
2023-01-09T23:29:54.870Z,6.49
2023-01-09T23:32:21.553Z,6.47
2023-01-09T23:34:48.478Z,6.50
2023-01-09T23:37:15.910Z,6.47
2023-01-09T23:39:42.668Z,6.50
2023-01-09T23:42:25.189Z,6.51
2023-01-09T23:44:51.940Z,6.50
2023-01-09T23:47:18.810Z,6.49
2023-01-09T23:49:45.465Z,6.50
2023-01-09T23:52:12.281Z,6.49
2023-01-09T23:54:40.389Z,6.49
2023-01-09T23:57:07.005Z,6.41
2023-01-09T23:59:33.697Z,6.49
